New London, Iowa
Current Conditions -  °F | °C
As of 7:15 AM on Thursday 27 Nov 2014 (Local Time) from KMPZ Reporting Station
Overcast Overcast  
Wind Chill:   Ceiling: 3000
Heat Index: 18°   Visibility: 10mi
Dew Point: 13°   Wind: 10mph
Humidity: 81%   Direction: 290°WNW
Pressure: 30.45"   Gusts: NA
Location:  40.93°N, 91.4°W
Report Text: KMPZ 271315Z AUTO 29009KT 10SM OVC030 M08/M10 A3045 RMK AO2 T10771105
Loading
Personal Weather Stations






























Interactive Weather Map New forecast layout! Learn more

10-Day Weather Forecast

Advertisements
Track Severe Weather on mobile